sensor_id;sensor_type;location;lat;lon;timestamp;pressure;altitude;pressure_sealevel;temperature;humidity
64352;BME280;50680;52.626;-8.668;2023-08-07T00:02:01;102328.25;;;14.01;100.00
64352;BME280;50680;52.626;-8.668;2023-08-07T00:04:28;102317.84;;;13.98;100.00
64352;BME280;50680;52.626;-8.668;2023-08-07T00:06:55;102319.13;;;13.89;100.00
64352;BME280;50680;52.626;-8.668;2023-08-07T00:09:22;102322.28;;;13.78;100.00
64352;BME280;50680;52.626;-8.668;2023-08-07T00:11:49;102315.59;;;13.71;100.00
64352;BME280;50680;52.626;-8.668;2023-08-07T00:14:16;102315.09;;;13.63;100.00
64352;BME280;50680;52.626;-8.668;2023-08-07T00:16:43;102323.31;;;13.57;100.00
64352;BME280;50680;52.626;-8.668;2023-08-07T00:19:10;102314.75;;;13.51;100.00
64352;BME280;50680;52.626;-8.668;2023-08-07T00:21:38;102306.47;;;13.40;100.00
64352;BME280;50680;52.626;-8.668;2023-08-07T00:24:05;102312.16;;;13.31;100.00
64352;BME280;50680;52.626;-8.668;2023-08-07T00:26:32;102310.06;;;13.19;100.00
64352;BME280;50680;52.626;-8.668;2023-08-07T00:28:59;102312.38;;;13.06;100.00
64352;BME280;50680;52.626;-8.668;2023-08-07T00:31:26;102306.81;;;12.93;100.00
64352;BME280;50680;52.626;-8.668;2023-08-07T00:33:57;102307.47;;;12.98;100.00
64352;BME280;50680;52.626;-8.668;2023-08-07T00:36:24;102312.59;;;12.81;100.00
64352;BME280;50680;52.626;-8.668;2023-08-07T00:38:52;102306.94;;;12.69;100.00
64352;BME280;50680;52.626;-8.668;2023-08-07T00:41:19;102306.56;;;12.58;100.00
64352;BME280;50680;52.626;-8.668;2023-08-07T00:43:46;102314.50;;;12.56;100.00
64352;BME280;50680;52.626;-8.668;2023-08-07T00:46:14;102325.88;;;12.57;100.00
64352;BME280;50680;52.626;-8.668;2023-08-07T00:48:41;102316.41;;;12.53;100.00
64352;BME280;50680;52.626;-8.668;2023-08-07T00:51:08;102332.47;;;12.67;100.00
64352;BME280;50680;52.626;-8.668;2023-08-07T00:53:38;102332.34;;;12.70;100.00
64352;BME280;50680;52.626;-8.668;2023-08-07T00:56:06;102333.84;;;12.76;100.00
64352;BME280;50680;52.626;-8.668;2023-08-07T00:58:34;102330.97;;;12.82;100.00
64352;BME280;50680;52.626;-8.668;2023-08-07T01:01:01;102330.81;;;12.85;100.00
64352;BME280;50680;52.626;-8.668;2023-08-07T01:03:28;102327.47;;;13.02;100.00
64352;BME280;50680;52.626;-8.668;2023-08-07T01:05:55;102320.16;;;13.09;100.00
64352;BME280;50680;52.626;-8.668;2023-08-07T01:08:23;102311.25;;;13.11;100.00
64352;BME280;50680;52.626;-8.668;2023-08-07T01:16:55;102314.97;;;13.26;100.00
64352;BME280;50680;52.626;-8.668;2023-08-07T01:19:26;102325.31;;;13.31;100.00
64352;BME280;50680;52.626;-8.668;2023-08-07T01:22:15;102323.38;;;13.36;100.00
64352;BME280;50680;52.626;-8.668;2023-08-07T01:24:46;102307.38;;;13.39;100.00
64352;BME280;50680;52.626;-8.668;2023-08-07T01:35:17;102296.31;;;13.51;100.00
64352;BME280;50680;52.626;-8.668;2023-08-07T01:37:46;102292.47;;;13.59;100.00
64352;BME280;50680;52.626;-8.668;2023-08-07T01:40:15;102295.56;;;13.67;100.00
64352;BME280;50680;52.626;-8.668;2023-08-07T01:42:44;102283.97;;;13.71;100.00
64352;BME280;50680;52.626;-8.668;2023-08-07T01:45:11;102287.25;;;13.76;100.00
64352;BME280;50680;52.626;-8.668;2023-08-07T01:47:38;102286.09;;;13.82;100.00
64352;BME280;50680;52.626;-8.668;2023-08-07T01:50:06;102287.63;;;13.86;100.00
64352;BME280;50680;52.626;-8.668;2023-08-07T01:52:33;102278.88;;;13.85;100.00
64352;BME280;50680;52.626;-8.668;2023-08-07T01:55:00;102285.63;;;13.91;100.00
64352;BME280;50680;52.626;-8.668;2023-08-07T01:57:27;102279.38;;;13.94;100.00
64352;BME280;50680;52.626;-8.668;2023-08-07T01:59:54;102288.84;;;13.98;100.00
64352;BME280;50680;52.626;-8.668;2023-08-07T02:02:21;102284.34;;;14.00;100.00
64352;BME280;50680;52.626;-8.668;2023-08-07T02:04:48;102283.28;;;14.04;100.00
64352;BME280;50680;52.626;-8.668;2023-08-07T02:07:14;102280.56;;;14.05;100.00
64352;BME280;50680;52.626;-8.668;2023-08-07T02:09:41;102267.09;;;13.92;100.00
64352;BME280;50680;52.626;-8.668;2023-08-07T02:12:08;102278.78;;;14.06;100.00
64352;BME280;50680;52.626;-8.668;2023-08-07T02:14:35;102270.72;;;14.09;100.00
64352;BME280;50680;52.626;-8.668;2023-08-07T02:17:02;102261.84;;;14.10;100.00
64352;BME280;50680;52.626;-8.668;2023-08-07T02:19:29;102265.31;;;14.12;100.00
64352;BME280;50680;52.626;-8.668;2023-08-07T02:21:57;102275.84;;;14.12;100.00
64352;BME280;50680;52.626;-8.668;2023-08-07T02:24:24;102268.72;;;14.14;100.00
64352;BME280;50680;52.626;-8.668;2023-08-07T02:26:51;102273.13;;;14.14;100.00
64352;BME280;50680;52.626;-8.668;2023-08-07T02:29:17;102258.94;;;14.16;100.00
64352;BME280;50680;52.626;-8.668;2023-08-07T02:31:44;102250.31;;;14.13;100.00
64352;BME280;50680;52.626;-8.668;2023-08-07T02:34:11;102249.41;;;14.14;100.00
64352;BME280;50680;52.626;-8.668;2023-08-07T02:36:38;102250.94;;;14.18;100.00
64352;BME280;50680;52.626;-8.668;2023-08-07T02:39:06;102243.72;;;14.21;100.00
64352;BME280;50680;52.626;-8.668;2023-08-07T02:41:33;102236.59;;;14.23;100.00
64352;BME280;50680;52.626;-8.668;2023-08-07T02:44:00;102236.91;;;14.17;100.00
64352;BME280;50680;52.626;-8.668;2023-08-07T02:46:26;102242.34;;;14.14;100.00
64352;BME280;50680;52.626;-8.668;2023-08-07T02:48:53;102242.81;;;14.22;100.00
64352;BME280;50680;52.626;-8.668;2023-08-07T02:51:20;102245.59;;;14.19;100.00
64352;BME280;50680;52.626;-8.668;2023-08-07T02:53:47;102237.75;;;14.18;100.00
64352;BME280;50680;52.626;-8.668;2023-08-07T02:56:14;102236.91;;;14.17;100.00
64352;BME280;50680;52.626;-8.668;2023-08-07T02:58:41;102233.41;;;14.17;100.00
64352;BME280;50680;52.626;-8.668;2023-08-07T03:01:08;102241.38;;;14.15;100.00
64352;BME280;50680;52.626;-8.668;2023-08-07T03:03:35;102234.72;;;14.08;100.00
64352;BME280;50680;52.626;-8.668;2023-08-07T03:06:03;102233.72;;;14.10;100.00
64352;BME280;50680;52.626;-8.668;2023-08-07T03:08:30;102220.59;;;14.09;100.00
64352;BME280;50680;52.626;-8.668;2023-08-07T03:10:58;102233.41;;;14.17;100.00
64352;BME280;50680;52.626;-8.668;2023-08-07T03:13:25;102237.75;;;14.18;100.00
64352;BME280;50680;52.626;-8.668;2023-08-07T03:16:02;102247.34;;;14.19;100.00
64352;BME280;50680;52.626;-8.668;2023-08-07T03:18:30;102246.13;;;14.08;100.00
64352;BME280;50680;52.626;-8.668;2023-08-07T03:20:58;102237.97;;;14.13;100.00
64352;BME280;50680;52.626;-8.668;2023-08-07T03:23:27;102237.97;;;14.13;100.00
64352;BME280;50680;52.626;-8.668;2023-08-07T03:26:05;102232.56;;;14.16;100.00
64352;BME280;50680;52.626;-8.668;2023-08-07T03:28:35;102222.28;;;14.10;100.00
64352;BME280;50680;52.626;-8.668;2023-08-07T03:31:02;102229.22;;;14.13;100.00
64352;BME280;50680;52.626;-8.668;2023-08-07T03:33:29;102210.91;;;14.09;100.00
64352;BME280;50680;52.626;-8.668;2023-08-07T03:35:56;102206.31;;;14.13;100.00
64352;BME280;50680;52.626;-8.668;2023-08-07T03:38:23;102207.19;;;14.14;100.00
64352;BME280;50680;52.626;-8.668;2023-08-07T03:40:50;102202.75;;;14.14;100.00
64352;BME280;50680;52.626;-8.668;2023-08-07T03:43:17;102205.41;;;14.14;100.00
64352;BME280;50680;52.626;-8.668;2023-08-07T03:45:44;102201.91;;;14.14;100.00
64352;BME280;50680;52.626;-8.668;2023-08-07T03:48:11;102201.03;;;14.13;100.00
64352;BME280;50680;52.626;-8.668;2023-08-07T03:50:38;102203.53;;;14.16;100.00
64352;BME280;50680;52.626;-8.668;2023-08-07T03:53:06;102206.16;;;14.16;100.00
64352;BME280;50680;52.626;-8.668;2023-08-07T03:55:34;102200.81;;;14.18;100.00
64352;BME280;50680;52.626;-8.668;2023-08-07T03:58:02;102197.34;;;14.17;100.00
64352;BME280;50680;52.626;-8.668;2023-08-07T04:00:29;102189.44;;;14.17;100.00
64352;BME280;50680;52.626;-8.668;2023-08-07T04:02:56;102198.25;;;14.16;100.00
64352;BME280;50680;52.626;-8.668;2023-08-07T04:05:23;102192.06;;;14.17;100.00
64352;BME280;50680;52.626;-8.668;2023-08-07T04:07:50;102192.69;;;14.22;100.00
64352;BME280;50680;52.626;-8.668;2023-08-07T04:10:17;102182.81;;;14.26;100.00
64352;BME280;50680;52.626;-8.668;2023-08-07T04:12:44;102179.31;;;14.25;100.00
64352;BME280;50680;52.626;-8.668;2023-08-07T04:15:11;102185.53;;;14.24;100.00
64352;BME280;50680;52.626;-8.668;2023-08-07T04:17:38;102182.91;;;14.24;100.00
64352;BME280;50680;52.626;-8.668;2023-08-07T04:20:05;102190.03;;;14.22;100.00
64352;BME280;50680;52.626;-8.668;2023-08-07T04:22:33;102185.75;;;14.20;100.00
64352;BME280;50680;52.626;-8.668;2023-08-07T04:25:00;102180.56;;;14.18;100.00
64352;BME280;50680;52.626;-8.668;2023-08-07T04:27:27;102185.84;;;14.18;100.00
64352;BME280;50680;52.626;-8.668;2023-08-07T04:29:54;102169.72;;;14.07;100.00
64352;BME280;50680;52.626;-8.668;2023-08-07T04:32:21;102192.34;;;14.11;100.00
64352;BME280;50680;52.626;-8.668;2023-08-07T04:34:51;102200.13;;;14.14;100.00
64352;BME280;50680;52.626;-8.668;2023-08-07T04:37:18;102183.28;;;14.17;100.00
64352;BME280;50680;52.626;-8.668;2023-08-07T04:39:45;102177.91;;;14.18;100.00
64352;BME280;50680;52.626;-8.668;2023-08-07T04:42:12;102180.72;;;14.15;100.00
64352;BME280;50680;52.626;-8.668;2023-08-07T04:44:39;102176.38;;;14.14;100.00
64352;BME280;50680;52.626;-8.668;2023-08-07T04:47:06;102178.00;;;14.17;100.00
64352;BME280;50680;52.626;-8.668;2023-08-07T04:49:33;102176.06;;;14.20;100.00
64352;BME280;50680;52.626;-8.668;2023-08-07T04:52:00;102183.13;;;14.20;100.00
64352;BME280;50680;52.626;-8.668;2023-08-07T04:54:46;102187.31;;;14.24;100.00
64352;BME280;50680;52.626;-8.668;2023-08-07T04:57:13;102188.31;;;14.21;100.00
64352;BME280;50680;52.626;-8.668;2023-08-07T04:59:40;102175.91;;;14.23;100.00
64352;BME280;50680;52.626;-8.668;2023-08-07T05:02:06;102178.53;;;14.23;100.00
64352;BME280;50680;52.626;-8.668;2023-08-07T05:04:33;102172.50;;;14.21;100.00
64352;BME280;50680;52.626;-8.668;2023-08-07T05:07:00;102170.63;;;14.23;100.00
64352;BME280;50680;52.626;-8.668;2023-08-07T05:09:27;102171.72;;;14.19;100.00
64352;BME280;50680;52.626;-8.668;2023-08-07T05:11:54;102180.50;;;14.20;100.00
64352;BME280;50680;52.626;-8.668;2023-08-07T05:14:21;102178.63;;;14.22;100.00
64352;BME280;50680;52.626;-8.668;2023-08-07T05:16:48;102170.78;;;14.20;100.00
64352;BME280;50680;52.626;-8.668;2023-08-07T05:19:16;102168.00;;;14.23;100.00
64352;BME280;50680;52.626;-8.668;2023-08-07T05:21:43;102172.34;;;14.24;100.00
64352;BME280;50680;52.626;-8.668;2023-08-07T05:24:10;102168.84;;;14.24;100.00
64352;BME280;50680;52.626;-8.668;2023-08-07T05:26:37;102180.34;;;14.23;100.00
64352;BME280;50680;52.626;-8.668;2023-08-07T05:29:03;102171.25;;;14.28;100.00
64352;BME280;50680;52.626;-8.668;2023-08-07T05:31:30;102174.84;;;14.27;100.00
64352;BME280;50680;52.626;-8.668;2023-08-07T05:33:57;102177.47;;;14.27;100.00
64352;BME280;50680;52.626;-8.668;2023-08-07T05:36:24;102180.88;;;14.29;100.00
64352;BME280;50680;52.626;-8.668;2023-08-07T05:38:51;102181.66;;;14.32;100.00
64352;BME280;50680;52.626;-8.668;2023-08-07T05:41:18;102164.88;;;14.33;100.00
64352;BME280;50680;52.626;-8.668;2023-08-07T05:43:45;102151.78;;;14.31;100.00
64352;BME280;50680;52.626;-8.668;2023-08-07T05:46:12;102157.75;;;14.35;100.00
64352;BME280;50680;52.626;-8.668;2023-08-07T05:48:39;102147.00;;;14.38;100.00
64352;BME280;50680;52.626;-8.668;2023-08-07T05:51:06;102133.66;;;14.41;100.00
64352;BME280;50680;52.626;-8.668;2023-08-07T05:53:36;102146.84;;;14.41;100.00
64352;BME280;50680;52.626;-8.668;2023-08-07T05:56:03;102139.56;;;14.46;100.00
64352;BME280;50680;52.626;-8.668;2023-08-07T05:58:30;102138.47;;;14.50;100.00
64352;BME280;50680;52.626;-8.668;2023-08-07T06:00:57;102139.94;;;14.56;100.00
64352;BME280;50680;52.626;-8.668;2023-08-07T06:03:24;102137.09;;;14.60;100.00
64352;BME280;50680;52.626;-8.668;2023-08-07T06:05:51;102131.44;;;14.66;100.00
64352;BME280;50680;52.626;-8.668;2023-08-07T06:08:18;102134.84;;;14.69;100.00
64352;BME280;50680;52.626;-8.668;2023-08-07T06:10:45;102128.22;;;14.77;100.00
64352;BME280;50680;52.626;-8.668;2023-08-07T06:13:12;102132.16;;;14.86;100.00
64352;BME280;50680;52.626;-8.668;2023-08-07T06:15:48;102142.47;;;14.91;100.00
64352;BME280;50680;52.626;-8.668;2023-08-07T06:18:15;102136.66;;;15.00;100.00
64352;BME280;50680;52.626;-8.668;2023-08-07T06:20:42;102116.81;;;14.93;100.00
64352;BME280;50680;52.626;-8.668;2023-08-07T06:23:09;102129.34;;;15.05;100.00
64352;BME280;50680;52.626;-8.668;2023-08-07T06:25:36;102131.16;;;15.04;100.00
64352;BME280;50680;52.626;-8.668;2023-08-07T06:28:03;102132.78;;;15.07;100.00
64352;BME280;50680;52.626;-8.668;2023-08-07T06:30:33;102133.63;;;15.08;100.00
64352;BME280;50680;52.626;-8.668;2023-08-07T06:33:00;102128.50;;;15.04;100.00
64352;BME280;50680;52.626;-8.668;2023-08-07T06:35:27;102126.38;;;15.11;100.00
64352;BME280;50680;52.626;-8.668;2023-08-07T06:37:54;102133.69;;;15.22;100.00
64352;BME280;50680;52.626;-8.668;2023-08-07T06:40:21;102132.47;;;15.28;100.00
64352;BME280;50680;52.626;-8.668;2023-08-07T06:42:47;102130.72;;;15.28;100.00
64352;BME280;50680;52.626;-8.668;2023-08-07T06:45:14;102133.16;;;15.31;100.00
64352;BME280;50680;52.626;-8.668;2023-08-07T06:47:41;102128.38;;;15.38;100.00
64352;BME280;50680;52.626;-8.668;2023-08-07T06:50:09;102129.75;;;15.45;100.00
64352;BME280;50680;52.626;-8.668;2023-08-07T06:52:38;102126.91;;;15.48;100.00
64352;BME280;50680;52.626;-8.668;2023-08-07T06:55:05;102128.38;;;15.54;100.00
64352;BME280;50680;52.626;-8.668;2023-08-07T06:57:32;102129.06;;;15.57;100.00
64352;BME280;50680;52.626;-8.668;2023-08-07T06:59:59;102125.53;;;15.57;100.00
64352;BME280;50680;52.626;-8.668;2023-08-07T07:02:26;102122.63;;;15.61;100.00
64352;BME280;50680;52.626;-8.668;2023-08-07T07:04:53;102126.44;;;15.72;100.00
64352;BME280;50680;52.626;-8.668;2023-08-07T07:07:20;102134.28;;;15.73;100.00
64352;BME280;50680;52.626;-8.668;2023-08-07T07:09:47;102132.44;;;15.75;100.00
64352;BME280;50680;52.626;-8.668;2023-08-07T07:12:14;102125.91;;;15.81;100.00
64352;BME280;50680;52.626;-8.668;2023-08-07T07:14:41;102123.59;;;15.91;100.00
64352;BME280;50680;52.626;-8.668;2023-08-07T07:17:08;102123.34;;;15.95;100.00
64352;BME280;50680;52.626;-8.668;2023-08-07T07:19:35;102130.03;;;16.01;100.00
64352;BME280;50680;52.626;-8.668;2023-08-07T07:22:02;102144.44;;;16.11;100.00
64352;BME280;50680;52.626;-8.668;2023-08-07T07:24:29;102129.88;;;16.19;100.00
64352;BME280;50680;52.626;-8.668;2023-08-07T07:26:56;102130.44;;;16.24;100.00
64352;BME280;50680;52.626;-8.668;2023-08-07T07:29:22;102127.91;;;16.22;100.00
64352;BME280;50680;52.626;-8.668;2023-08-07T07:31:50;102130.63;;;16.35;100.00
64352;BME280;50680;52.626;-8.668;2023-08-07T07:34:17;102129.13;;;16.31;100.00
64352;BME280;50680;52.626;-8.668;2023-08-07T07:36:44;102132.53;;;16.33;100.00
64352;BME280;50680;52.626;-8.668;2023-08-07T07:39:12;102135.56;;;16.41;100.00
64352;BME280;50680;52.626;-8.668;2023-08-07T07:41:39;102138.19;;;16.55;100.00
64352;BME280;50680;52.626;-8.668;2023-08-07T07:44:06;102140.38;;;16.63;100.00
64352;BME280;50680;52.626;-8.668;2023-08-07T07:46:33;102137.44;;;16.68;100.00
64352;BME280;50680;52.626;-8.668;2023-08-07T07:49:00;102136.97;;;16.76;100.00
64352;BME280;50680;52.626;-8.668;2023-08-07T07:51:27;102135.56;;;16.84;100.00
64352;BME280;50680;52.626;-8.668;2023-08-07T07:53:55;102136.88;;;16.91;100.00
64352;BME280;50680;52.626;-8.668;2023-08-07T07:56:40;102137.91;;;17.03;100.00
64352;BME280;50680;52.626;-8.668;2023-08-07T07:59:07;102133.72;;;17.14;100.00
64352;BME280;50680;52.626;-8.668;2023-08-07T08:01:35;102132.53;;;17.32;100.00
64352;BME280;50680;52.626;-8.668;2023-08-07T08:04:02;102136.22;;;17.57;100.00
64352;BME280;50680;52.626;-8.668;2023-08-07T08:06:29;102142.63;;;17.80;100.00
64352;BME280;50680;52.626;-8.668;2023-08-07T08:08:57;102130.16;;;17.95;100.00
64352;BME280;50680;52.626;-8.668;2023-08-07T08:11:24;102132.72;;;18.09;100.00
64352;BME280;50680;52.626;-8.668;2023-08-07T08:13:51;102122.84;;;18.24;100.00
64352;BME280;50680;52.626;-8.668;2023-08-07T08:16:18;102117.41;;;18.38;100.00
64352;BME280;50680;52.626;-8.668;2023-08-07T08:18:45;102111.88;;;18.54;100.00
64352;BME280;50680;52.626;-8.668;2023-08-07T08:21:12;102113.63;;;18.79;100.00
64352;BME280;50680;52.626;-8.668;2023-08-07T08:23:39;102104.78;;;18.92;100.00
64352;BME280;50680;52.626;-8.668;2023-08-07T08:26:06;102116.00;;;19.08;100.00
64352;BME280;50680;52.626;-8.668;2023-08-07T08:28:33;102101.19;;;19.17;100.00
64352;BME280;50680;52.626;-8.668;2023-08-07T08:31:00;102105.47;;;19.31;100.00
64352;BME280;50680;52.626;-8.668;2023-08-07T08:33:27;102098.38;;;19.43;100.00
64352;BME280;50680;52.626;-8.668;2023-08-07T08:35:53;102111.88;;;19.64;100.00
64352;BME280;50680;52.626;-8.668;2023-08-07T08:38:20;102101.59;;;19.83;100.00
64352;BME280;50680;52.626;-8.668;2023-08-07T08:40:51;102105.47;;;20.02;100.00
64352;BME280;50680;52.626;-8.668;2023-08-07T08:43:18;102103.31;;;20.18;100.00
64352;BME280;50680;52.626;-8.668;2023-08-07T08:45:46;102108.31;;;20.23;100.00
64352;BME280;50680;52.626;-8.668;2023-08-07T08:48:19;102096.06;;;20.09;100.00
64352;BME280;50680;52.626;-8.668;2023-08-07T08:50:49;102097.88;;;20.20;100.00
64352;BME280;50680;52.626;-8.668;2023-08-07T08:53:17;102093.41;;;20.20;100.00
64352;BME280;50680;52.626;-8.668;2023-08-07T08:55:47;102090.00;;;20.18;100.00
64352;BME280;50680;52.626;-8.668;2023-08-07T08:58:15;102082.50;;;20.23;100.00
64352;BME280;50680;52.626;-8.668;2023-08-07T09:00:43;102082.72;;;20.43;100.00
64352;BME280;50680;52.626;-8.668;2023-08-07T09:03:10;102085.41;;;20.65;100.00
64352;BME280;50680;52.626;-8.668;2023-08-07T09:05:39;102083.22;;;20.71;100.00
64352;BME280;50680;52.626;-8.668;2023-08-07T09:08:07;102078.84;;;20.81;100.00
64352;BME280;50680;52.626;-8.668;2023-08-07T09:10:35;102069.97;;;20.92;100.00
64352;BME280;50680;52.626;-8.668;2023-08-07T09:13:04;102070.31;;;20.98;100.00
64352;BME280;50680;52.626;-8.668;2023-08-07T09:15:35;102067.88;;;20.95;100.00
64352;BME280;50680;52.626;-8.668;2023-08-07T09:18:05;102064.66;;;20.80;100.00
64352;BME280;50680;52.626;-8.668;2023-08-07T09:20:35;102056.56;;;20.82;100.00
64352;BME280;50680;52.626;-8.668;2023-08-07T09:23:02;102054.25;;;20.77;100.00
64352;BME280;50680;52.626;-8.668;2023-08-07T09:25:33;102051.97;;;20.61;100.00
64352;BME280;50680;52.626;-8.668;2023-08-07T09:28:04;102058.38;;;20.59;100.00
64352;BME280;50680;52.626;-8.668;2023-08-07T09:30:34;102063.56;;;20.60;100.00
64352;BME280;50680;52.626;-8.668;2023-08-07T09:33:02;102056.09;;;20.54;100.00
64352;BME280;50680;52.626;-8.668;2023-08-07T09:35:30;102056.34;;;20.51;100.00
64352;BME280;50680;52.626;-8.668;2023-08-07T09:38:01;102059.75;;;20.64;100.00
64352;BME280;50680;52.626;-8.668;2023-08-07T09:40:29;102055.31;;;20.86;100.00
64352;BME280;50680;52.626;-8.668;2023-08-07T09:42:56;102039.63;;;21.04;100.00
64352;BME280;50680;52.626;-8.668;2023-08-07T09:45:24;102063.56;;;21.27;100.00
64352;BME280;50680;52.626;-8.668;2023-08-07T09:48:05;102051.97;;;21.37;100.00
64352;BME280;50680;52.626;-8.668;2023-08-07T09:50:35;102045.69;;;21.59;100.00
64352;BME280;50680;52.626;-8.668;2023-08-07T09:53:02;102048.53;;;21.68;100.00
64352;BME280;50680;52.626;-8.668;2023-08-07T09:55:29;102041.56;;;21.76;100.00
64352;BME280;50680;52.626;-8.668;2023-08-07T09:57:56;102040.28;;;21.71;100.00
64352;BME280;50680;52.626;-8.668;2023-08-07T10:00:23;102036.66;;;22.03;100.00
64352;BME280;50680;52.626;-8.668;2023-08-07T10:02:50;102036.66;;;22.12;100.00
64352;BME280;50680;52.626;-8.668;2023-08-07T10:05:18;102038.88;;;22.28;100.00
64352;BME280;50680;52.626;-8.668;2023-08-07T10:07:45;102037.94;;;22.39;100.00
64352;BME280;50680;52.626;-8.668;2023-08-07T10:10:14;102034.31;;;22.60;100.00
64352;BME280;50680;52.626;-8.668;2023-08-07T10:12:41;102039.00;;;22.77;100.00
64352;BME280;50680;52.626;-8.668;2023-08-07T10:15:08;102038.75;;;23.09;100.00
64352;BME280;50680;52.626;-8.668;2023-08-07T10:17:36;102032.72;;;23.17;100.00
64352;BME280;50680;52.626;-8.668;2023-08-07T10:20:04;102028.59;;;23.13;100.00
64352;BME280;50680;52.626;-8.668;2023-08-07T10:22:32;102026.94;;;23.12;100.00
64352;BME280;50680;52.626;-8.668;2023-08-07T10:25:01;102029.31;;;23.25;100.00
64352;BME280;50680;52.626;-8.668;2023-08-07T10:27:33;102021.59;;;23.12;100.00
64352;BME280;50680;52.626;-8.668;2023-08-07T10:30:04;102015.78;;;23.26;100.00
64352;BME280;50680;52.626;-8.668;2023-08-07T10:32:33;102019.56;;;23.34;100.00
64352;BME280;50680;52.626;-8.668;2023-08-07T10:35:04;102017.44;;;23.47;100.00
64352;BME280;50680;52.626;-8.668;2023-08-07T10:40:02;102007.28;;;23.60;100.00
64352;BME280;50680;52.626;-8.668;2023-08-07T10:42:52;101997.94;;;23.64;100.00
64352;BME280;50680;52.626;-8.668;2023-08-07T10:45:19;102002.19;;;23.67;100.00
64352;BME280;50680;52.626;-8.668;2023-08-07T10:50:47;102002.75;;;23.71;100.00
64352;BME280;50680;52.626;-8.668;2023-08-07T10:53:19;101995.41;;;23.73;100.00
64352;BME280;50680;52.626;-8.668;2023-08-07T10:55:48;102006.53;;;23.68;100.00
64352;BME280;50680;52.626;-8.668;2023-08-07T10:58:25;101994.16;;;23.57;100.00
64352;BME280;50680;52.626;-8.668;2023-08-07T11:03:54;101989.44;;;23.89;100.00
64352;BME280;50680;52.626;-8.668;2023-08-07T11:06:24;101989.88;;;23.84;100.00
64352;BME280;50680;52.626;-8.668;2023-08-07T11:08:53;101985.19;;;23.86;100.00
64352;BME280;50680;52.626;-8.668;2023-08-07T11:11:20;101985.19;;;23.86;100.00
64352;BME280;50680;52.626;-8.668;2023-08-07T11:13:47;101988.88;;;23.85;100.00
64352;BME280;50680;52.626;-8.668;2023-08-07T11:16:14;101988.34;;;23.72;100.00
64352;BME280;50680;52.626;-8.668;2023-08-07T11:18:42;101983.09;;;23.80;100.00
64352;BME280;50680;52.626;-8.668;2023-08-07T11:21:10;101988.88;;;23.95;100.00
64352;BME280;50680;52.626;-8.668;2023-08-07T11:23:40;101987.03;;;23.95;100.00
64352;BME280;50680;52.626;-8.668;2023-08-07T11:26:08;101980.31;;;24.09;100.00
64352;BME280;50680;52.626;-8.668;2023-08-07T11:28:35;101985.31;;;24.22;100.00
64352;BME280;50680;52.626;-8.668;2023-08-07T11:31:02;101971.44;;;24.36;100.00
64352;BME280;50680;52.626;-8.668;2023-08-07T11:33:29;101980.16;;;24.38;100.00
64352;BME280;50680;52.626;-8.668;2023-08-07T11:35:57;101974.41;;;24.33;100.00
64352;BME280;50680;52.626;-8.668;2023-08-07T11:38:32;101956.00;;;23.93;100.00
64352;BME280;50680;52.626;-8.668;2023-08-07T11:41:04;101967.72;;;23.92;100.00
64352;BME280;50680;52.626;-8.668;2023-08-07T11:43:33;101961.69;;;23.80;100.00
64352;BME280;50680;52.626;-8.668;2023-08-07T11:46:03;101964.34;;;23.80;100.00
64352;BME280;50680;52.626;-8.668;2023-08-07T11:48:32;101951.59;;;23.64;100.00
64352;BME280;50680;52.626;-8.668;2023-08-07T11:51:00;101958.03;;;23.71;100.00
64352;BME280;50680;52.626;-8.668;2023-08-07T11:53:30;101958.47;;;23.66;100.00
64352;BME280;50680;52.626;-8.668;2023-08-07T11:55:59;101953.31;;;23.55;100.00
64352;BME280;50680;52.626;-8.668;2023-08-07T11:58:39;101947.59;;;23.31;100.00
64352;BME280;50680;52.626;-8.668;2023-08-07T12:03:35;101952.44;;;23.64;100.00
64352;BME280;50680;52.626;-8.668;2023-08-07T12:06:07;101947.63;;;23.68;100.00
64352;BME280;50680;52.626;-8.668;2023-08-07T12:08:39;101945.50;;;23.72;100.00
64352;BME280;50680;52.626;-8.668;2023-08-07T12:11:09;101934.34;;;23.76;100.00
64352;BME280;50680;52.626;-8.668;2023-08-07T12:13:41;101929.94;;;23.95;100.00
64352;BME280;50680;52.626;-8.668;2023-08-07T12:16:08;101932.25;;;24.26;100.00
64352;BME280;50680;52.626;-8.668;2023-08-07T12:18:37;101930.59;;;24.43;100.00
64352;BME280;50680;52.626;-8.668;2023-08-07T12:21:07;101924.94;;;24.64;100.00
64352;BME280;50680;52.626;-8.668;2023-08-07T12:23:35;101919.69;;;24.54;100.00
64352;BME280;50680;52.626;-8.668;2023-08-07T12:26:03;101919.56;;;24.64;100.00
64352;BME280;50680;52.626;-8.668;2023-08-07T12:28:35;101921.03;;;24.58;100.00
64352;BME280;50680;52.626;-8.668;2023-08-07T12:31:03;101917.38;;;24.59;100.00
64352;BME280;50680;52.626;-8.668;2023-08-07T12:33:30;101911.91;;;24.69;100.00
64352;BME280;50680;52.626;-8.668;2023-08-07T12:35:58;101909.38;;;24.85;100.00
64352;BME280;50680;52.626;-8.668;2023-08-07T12:38:26;101905.53;;;24.88;100.00
64352;BME280;50680;52.626;-8.668;2023-08-07T12:40:53;101903.22;;;24.93;100.00
64352;BME280;50680;52.626;-8.668;2023-08-07T12:43:21;101899.63;;;25.10;100.00
64352;BME280;50680;52.626;-8.668;2023-08-07T12:45:48;101888.69;;;25.04;100.00
64352;BME280;50680;52.626;-8.668;2023-08-07T12:48:17;101893.91;;;25.05;100.00
64352;BME280;50680;52.626;-8.668;2023-08-07T12:50:45;101900.63;;;25.27;100.00
64352;BME280;50680;52.626;-8.668;2023-08-07T12:53:12;101898.56;;;25.47;100.00
64352;BME280;50680;52.626;-8.668;2023-08-07T12:55:39;101902.06;;;25.22;100.00
64352;BME280;50680;52.626;-8.668;2023-08-07T12:58:06;101904.69;;;25.13;100.00
64352;BME280;50680;52.626;-8.668;2023-08-07T13:00:33;101894.91;;;24.78;100.00